sensor_id;sensor_type;location;lat;lon;timestamp;temperature;humidity
63317;DHT22;49822;41.468;13.560;2024-03-06T00:01:31;8.50;92.40
63317;DHT22;49822;41.468;13.560;2024-03-06T00:03:57;8.40;93.50
63317;DHT22;49822;41.468;13.560;2024-03-06T00:06:23;8.30;94.40
63317;DHT22;49822;41.468;13.560;2024-03-06T00:08:50;8.30;95.10
63317;DHT22;49822;41.468;13.560;2024-03-06T00:11:17;8.30;95.40
63317;DHT22;49822;41.468;13.560;2024-03-06T00:13:53;8.20;95.30
63317;DHT22;49822;41.468;13.560;2024-03-06T00:16:19;8.30;95.90
63317;DHT22;49822;41.468;13.560;2024-03-06T00:18:46;8.40;96.00
63317;DHT22;49822;41.468;13.560;2024-03-06T00:21:12;8.50;95.90
63317;DHT22;49822;41.468;13.560;2024-03-06T00:23:40;8.40;95.20
63317;DHT22;49822;41.468;13.560;2024-03-06T00:26:06;8.20;95.30
63317;DHT22;49822;41.468;13.560;2024-03-06T00:28:32;8.30;95.70
63317;DHT22;49822;41.468;13.560;2024-03-06T00:31:00;8.60;95.30
63317;DHT22;49822;41.468;13.560;2024-03-06T00:33:28;8.60;95.10
63317;DHT22;49822;41.468;13.560;2024-03-06T00:35:54;8.60;95.20
63317;DHT22;49822;41.468;13.560;2024-03-06T00:38:20;8.80;94.90
63317;DHT22;49822;41.468;13.560;2024-03-06T00:40:46;8.70;93.90
63317;DHT22;49822;41.468;13.560;2024-03-06T00:43:13;8.40;92.60
63317;DHT22;49822;41.468;13.560;2024-03-06T00:45:41;8.50;93.30
63317;DHT22;49822;41.468;13.560;2024-03-06T00:48:09;8.40;93.80
63317;DHT22;49822;41.468;13.560;2024-03-06T00:50:35;8.50;94.10
63317;DHT22;49822;41.468;13.560;2024-03-06T00:53:01;8.30;94.10
63317;DHT22;49822;41.468;13.560;2024-03-06T00:55:30;8.40;94.30
63317;DHT22;49822;41.468;13.560;2024-03-06T00:57:56;8.50;94.30
63317;DHT22;49822;41.468;13.560;2024-03-06T01:00:22;8.50;94.10
63317;DHT22;49822;41.468;13.560;2024-03-06T01:02:48;8.40;94.00
63317;DHT22;49822;41.468;13.560;2024-03-06T01:05:15;8.60;93.80
63317;DHT22;49822;41.468;13.560;2024-03-06T01:07:43;8.50;93.60
63317;DHT22;49822;41.468;13.560;2024-03-06T01:10:09;8.50;92.90
63317;DHT22;49822;41.468;13.560;2024-03-06T01:12:36;8.40;92.90
63317;DHT22;49822;41.468;13.560;2024-03-06T01:15:04;8.50;93.10
63317;DHT22;49822;41.468;13.560;2024-03-06T01:17:30;8.60;93.40
63317;DHT22;49822;41.468;13.560;2024-03-06T01:19:56;8.50;93.20
63317;DHT22;49822;41.468;13.560;2024-03-06T01:22:22;8.70;93.20
63317;DHT22;49822;41.468;13.560;2024-03-06T01:24:49;8.80;93.10
63317;DHT22;49822;41.468;13.560;2024-03-06T01:27:16;8.70;92.80
63317;DHT22;49822;41.468;13.560;2024-03-06T01:29:42;8.70;92.30
63317;DHT22;49822;41.468;13.560;2024-03-06T01:32:08;8.70;92.20
63317;DHT22;49822;41.468;13.560;2024-03-06T01:34:36;8.60;91.70
63317;DHT22;49822;41.468;13.560;2024-03-06T01:37:03;8.60;91.40
63317;DHT22;49822;41.468;13.560;2024-03-06T01:39:29;8.60;92.00
63317;DHT22;49822;41.468;13.560;2024-03-06T01:41:55;8.70;92.00
63317;DHT22;49822;41.468;13.560;2024-03-06T01:44:22;8.60;92.10
63317;DHT22;49822;41.468;13.560;2024-03-06T01:46:48;8.60;91.10
63317;DHT22;49822;41.468;13.560;2024-03-06T01:49:15;8.40;90.50
63317;DHT22;49822;41.468;13.560;2024-03-06T01:51:48;8.40;91.20
63317;DHT22;49822;41.468;13.560;2024-03-06T01:54:15;8.30;91.60
63317;DHT22;49822;41.468;13.560;2024-03-06T01:56:45;8.30;92.00
63317;DHT22;49822;41.468;13.560;2024-03-06T01:59:13;8.40;91.50
63317;DHT22;49822;41.468;13.560;2024-03-06T02:01:41;8.10;91.90
63317;DHT22;49822;41.468;13.560;2024-03-06T02:04:08;8.00;92.70
63317;DHT22;49822;41.468;13.560;2024-03-06T02:06:41;8.00;93.00
63317;DHT22;49822;41.468;13.560;2024-03-06T02:09:08;8.00;93.30
63317;DHT22;49822;41.468;13.560;2024-03-06T02:11:38;7.80;93.30
63317;DHT22;49822;41.468;13.560;2024-03-06T02:14:04;7.90;93.70
63317;DHT22;49822;41.468;13.560;2024-03-06T02:16:32;7.90;94.10
63317;DHT22;49822;41.468;13.560;2024-03-06T02:18:59;8.00;94.40
63317;DHT22;49822;41.468;13.560;2024-03-06T02:21:25;8.10;94.50
63317;DHT22;49822;41.468;13.560;2024-03-06T02:23:51;8.10;94.70
63317;DHT22;49822;41.468;13.560;2024-03-06T02:26:18;8.00;93.10
63317;DHT22;49822;41.468;13.560;2024-03-06T02:28:52;7.90;93.50
63317;DHT22;49822;41.468;13.560;2024-03-06T02:31:19;7.90;93.80
63317;DHT22;49822;41.468;13.560;2024-03-06T02:33:46;8.00;94.30
63317;DHT22;49822;41.468;13.560;2024-03-06T02:36:16;8.10;94.30
63317;DHT22;49822;41.468;13.560;2024-03-06T02:38:44;8.00;93.00
63317;DHT22;49822;41.468;13.560;2024-03-06T02:41:11;7.90;92.90
63317;DHT22;49822;41.468;13.560;2024-03-06T02:43:39;7.90;93.60
63317;DHT22;49822;41.468;13.560;2024-03-06T02:46:06;7.90;93.40
63317;DHT22;49822;41.468;13.560;2024-03-06T02:48:32;7.80;94.30
63317;DHT22;49822;41.468;13.560;2024-03-06T02:50:58;7.90;94.40
63317;DHT22;49822;41.468;13.560;2024-03-06T02:53:25;8.10;94.60
63317;DHT22;49822;41.468;13.560;2024-03-06T02:55:54;8.00;94.60
63317;DHT22;49822;41.468;13.560;2024-03-06T02:58:20;8.10;93.60
63317;DHT22;49822;41.468;13.560;2024-03-06T03:00:47;8.10;93.40
63317;DHT22;49822;41.468;13.560;2024-03-06T03:03:14;8.00;93.50
63317;DHT22;49822;41.468;13.560;2024-03-06T03:05:40;8.10;93.60
63317;DHT22;49822;41.468;13.560;2024-03-06T03:08:07;8.10;93.70
63317;DHT22;49822;41.468;13.560;2024-03-06T03:10:34;8.10;93.60
63317;DHT22;49822;41.468;13.560;2024-03-06T03:13:00;8.20;93.40
63317;DHT22;49822;41.468;13.560;2024-03-06T03:15:26;8.00;92.70
63317;DHT22;49822;41.468;13.560;2024-03-06T03:17:53;8.00;93.10
63317;DHT22;49822;41.468;13.560;2024-03-06T03:20:20;8.10;93.40
63317;DHT22;49822;41.468;13.560;2024-03-06T03:22:46;8.00;93.20
63317;DHT22;49822;41.468;13.560;2024-03-06T03:25:13;8.00;93.70
63317;DHT22;49822;41.468;13.560;2024-03-06T03:27:39;8.00;94.00
63317;DHT22;49822;41.468;13.560;2024-03-06T03:30:10;8.00;94.10
63317;DHT22;49822;41.468;13.560;2024-03-06T03:32:36;7.90;93.10
63317;DHT22;49822;41.468;13.560;2024-03-06T03:35:06;7.80;93.50
63317;DHT22;49822;41.468;13.560;2024-03-06T03:37:34;7.70;93.90
63317;DHT22;49822;41.468;13.560;2024-03-06T03:40:01;7.70;94.30
63317;DHT22;49822;41.468;13.560;2024-03-06T03:42:27;8.00;94.50
63317;DHT22;49822;41.468;13.560;2024-03-06T03:44:53;7.90;94.50
63317;DHT22;49822;41.468;13.560;2024-03-06T03:47:19;7.80;94.50
63317;DHT22;49822;41.468;13.560;2024-03-06T03:49:45;8.00;94.40
63317;DHT22;49822;41.468;13.560;2024-03-06T03:52:13;8.10;94.30
63317;DHT22;49822;41.468;13.560;2024-03-06T03:54:39;8.10;94.30
63317;DHT22;49822;41.468;13.560;2024-03-06T03:57:05;8.10;94.00
63317;DHT22;49822;41.468;13.560;2024-03-06T03:59:32;8.20;94.00
63317;DHT22;49822;41.468;13.560;2024-03-06T04:01:58;8.00;92.90
63317;DHT22;49822;41.468;13.560;2024-03-06T04:04:25;7.80;93.60
63317;DHT22;49822;41.468;13.560;2024-03-06T04:06:52;7.80;94.20
63317;DHT22;49822;41.468;13.560;2024-03-06T04:09:18;8.00;94.80
63317;DHT22;49822;41.468;13.560;2024-03-06T04:11:44;8.00;95.00
63317;DHT22;49822;41.468;13.560;2024-03-06T04:14:10;8.00;95.00
63317;DHT22;49822;41.468;13.560;2024-03-06T04:16:36;8.20;95.10
63317;DHT22;49822;41.468;13.560;2024-03-06T04:19:02;8.10;94.60
63317;DHT22;49822;41.468;13.560;2024-03-06T04:21:30;8.20;94.50
63317;DHT22;49822;41.468;13.560;2024-03-06T04:23:56;8.20;94.40
63317;DHT22;49822;41.468;13.560;2024-03-06T04:26:24;8.20;94.10
63317;DHT22;49822;41.468;13.560;2024-03-06T04:28:52;8.20;94.30
63317;DHT22;49822;41.468;13.560;2024-03-06T04:31:18;8.20;94.80
63317;DHT22;49822;41.468;13.560;2024-03-06T04:33:45;8.30;95.10
63317;DHT22;49822;41.468;13.560;2024-03-06T04:36:11;8.50;95.10
63317;DHT22;49822;41.468;13.560;2024-03-06T04:38:37;8.50;94.90
63317;DHT22;49822;41.468;13.560;2024-03-06T04:41:05;8.60;94.80
63317;DHT22;49822;41.468;13.560;2024-03-06T04:43:32;8.60;94.40
63317;DHT22;49822;41.468;13.560;2024-03-06T04:46:00;8.70;93.70
63317;DHT22;49822;41.468;13.560;2024-03-06T04:48:26;8.50;93.70
63317;DHT22;49822;41.468;13.560;2024-03-06T04:50:52;8.60;93.70
63317;DHT22;49822;41.468;13.560;2024-03-06T04:53:18;8.70;94.00
63317;DHT22;49822;41.468;13.560;2024-03-06T04:55:47;8.70;94.00
63317;DHT22;49822;41.468;13.560;2024-03-06T04:58:14;8.80;94.00
63317;DHT22;49822;41.468;13.560;2024-03-06T05:00:42;8.80;94.00
63317;DHT22;49822;41.468;13.560;2024-03-06T05:03:11;8.80;94.00
63317;DHT22;49822;41.468;13.560;2024-03-06T05:05:37;8.80;94.10
63317;DHT22;49822;41.468;13.560;2024-03-06T05:08:06;8.90;94.10
63317;DHT22;49822;41.468;13.560;2024-03-06T05:10:32;8.80;94.50
63317;DHT22;49822;41.468;13.560;2024-03-06T05:12:58;8.90;94.40
63317;DHT22;49822;41.468;13.560;2024-03-06T05:15:25;8.90;94.40
63317;DHT22;49822;41.468;13.560;2024-03-06T05:17:51;9.00;94.30
63317;DHT22;49822;41.468;13.560;2024-03-06T05:20:19;9.00;94.40
63317;DHT22;49822;41.468;13.560;2024-03-06T05:22:46;8.90;94.10
63317;DHT22;49822;41.468;13.560;2024-03-06T05:25:12;8.90;94.10
63317;DHT22;49822;41.468;13.560;2024-03-06T05:27:38;8.90;94.00
63317;DHT22;49822;41.468;13.560;2024-03-06T05:30:06;8.80;94.00
63317;DHT22;49822;41.468;13.560;2024-03-06T05:32:34;8.80;93.90
63317;DHT22;49822;41.468;13.560;2024-03-06T05:35:00;8.80;93.90
63317;DHT22;49822;41.468;13.560;2024-03-06T05:37:26;8.80;93.90
63317;DHT22;49822;41.468;13.560;2024-03-06T05:39:54;8.60;93.90
63317;DHT22;49822;41.468;13.560;2024-03-06T05:42:20;8.60;93.00
63317;DHT22;49822;41.468;13.560;2024-03-06T05:44:46;8.30;93.70
63317;DHT22;49822;41.468;13.560;2024-03-06T05:47:15;8.20;94.40
63317;DHT22;49822;41.468;13.560;2024-03-06T05:49:42;8.10;95.20
63317;DHT22;49822;41.468;13.560;2024-03-06T05:52:08;8.10;95.40
63317;DHT22;49822;41.468;13.560;2024-03-06T05:54:34;8.20;95.60
63317;DHT22;49822;41.468;13.560;2024-03-06T05:57:01;8.20;95.40
63317;DHT22;49822;41.468;13.560;2024-03-06T05:59:28;8.30;95.20
63317;DHT22;49822;41.468;13.560;2024-03-06T06:01:54;8.30;95.20
63317;DHT22;49822;41.468;13.560;2024-03-06T06:04:20;8.30;94.90
63317;DHT22;49822;41.468;13.560;2024-03-06T06:06:47;7.90;94.40
63317;DHT22;49822;41.468;13.560;2024-03-06T06:09:13;7.90;95.80
63317;DHT22;49822;41.468;13.560;2024-03-06T06:11:43;8.00;96.70
63317;DHT22;49822;41.468;13.560;2024-03-06T06:14:09;8.30;97.10
63317;DHT22;49822;41.468;13.560;2024-03-06T06:16:37;8.30;97.00
63317;DHT22;49822;41.468;13.560;2024-03-06T06:19:03;8.40;96.80
63317;DHT22;49822;41.468;13.560;2024-03-06T06:21:30;8.60;96.20
63317;DHT22;49822;41.468;13.560;2024-03-06T06:23:56;8.60;95.70
63317;DHT22;49822;41.468;13.560;2024-03-06T06:26:22;8.70;95.40
63317;DHT22;49822;41.468;13.560;2024-03-06T06:28:48;8.70;95.00
63317;DHT22;49822;41.468;13.560;2024-03-06T06:31:14;8.70;94.60
63317;DHT22;49822;41.468;13.560;2024-03-06T06:33:42;9.00;94.50
63317;DHT22;49822;41.468;13.560;2024-03-06T06:36:10;9.00;94.50
63317;DHT22;49822;41.468;13.560;2024-03-06T06:38:36;9.20;93.90
63317;DHT22;49822;41.468;13.560;2024-03-06T06:41:03;9.10;93.80
63317;DHT22;49822;41.468;13.560;2024-03-06T06:43:29;9.30;93.60
63317;DHT22;49822;41.468;13.560;2024-03-06T06:45:57;9.40;93.60
63317;DHT22;49822;41.468;13.560;2024-03-06T06:51:49;9.70;93.50
63317;DHT22;49822;41.468;13.560;2024-03-06T06:54:16;9.70;93.50
63317;DHT22;49822;41.468;13.560;2024-03-06T06:56:43;9.80;93.30
63317;DHT22;49822;41.468;13.560;2024-03-06T06:59:10;9.80;93.30
63317;DHT22;49822;41.468;13.560;2024-03-06T07:01:37;9.90;93.10
63317;DHT22;49822;41.468;13.560;2024-03-06T07:04:04;9.90;93.30
63317;DHT22;49822;41.468;13.560;2024-03-06T07:06:30;10.10;93.00
63317;DHT22;49822;41.468;13.560;2024-03-06T07:08:56;10.10;93.00
63317;DHT22;49822;41.468;13.560;2024-03-06T07:11:22;10.20;93.00
63317;DHT22;49822;41.468;13.560;2024-03-06T07:13:50;10.30;93.00
63317;DHT22;49822;41.468;13.560;2024-03-06T07:16:17;10.40;92.90
63317;DHT22;49822;41.468;13.560;2024-03-06T07:18:43;10.40;92.70
63317;DHT22;49822;41.468;13.560;2024-03-06T07:21:09;10.60;92.60
63317;DHT22;49822;41.468;13.560;2024-03-06T07:23:37;10.60;92.50
63317;DHT22;49822;41.468;13.560;2024-03-06T07:26:04;10.50;92.60
63317;DHT22;49822;41.468;13.560;2024-03-06T07:28:30;10.70;93.00
63317;DHT22;49822;41.468;13.560;2024-03-06T07:30:57;10.90;92.90
63317;DHT22;49822;41.468;13.560;2024-03-06T07:33:26;11.10;92.70
63317;DHT22;49822;41.468;13.560;2024-03-06T07:35:53;11.10;92.60
63317;DHT22;49822;41.468;13.560;2024-03-06T07:38:19;11.40;92.10
63317;DHT22;49822;41.468;13.560;2024-03-06T07:40:46;11.40;91.30
63317;DHT22;49822;41.468;13.560;2024-03-06T07:43:12;11.60;91.50
63317;DHT22;49822;41.468;13.560;2024-03-06T07:45:42;11.70;91.40
63317;DHT22;49822;41.468;13.560;2024-03-06T07:48:11;11.90;91.00
63317;DHT22;49822;41.468;13.560;2024-03-06T07:50:37;12.00;90.40
63317;DHT22;49822;41.468;13.560;2024-03-06T07:53:03;12.20;90.20
63317;DHT22;49822;41.468;13.560;2024-03-06T07:55:30;12.40;90.00
63317;DHT22;49822;41.468;13.560;2024-03-06T07:57:56;12.60;89.70
63317;DHT22;49822;41.468;13.560;2024-03-06T08:00:23;12.90;89.60
63317;DHT22;49822;41.468;13.560;2024-03-06T08:02:49;13.10;89.00
63317;DHT22;49822;41.468;13.560;2024-03-06T08:05:17;13.30;88.50
63317;DHT22;49822;41.468;13.560;2024-03-06T08:07:45;13.50;88.30
63317;DHT22;49822;41.468;13.560;2024-03-06T08:10:12;13.60;87.80
63317;DHT22;49822;41.468;13.560;2024-03-06T08:12:42;13.50;87.40
63317;DHT22;49822;41.468;13.560;2024-03-06T08:15:11;13.60;87.80
63317;DHT22;49822;41.468;13.560;2024-03-06T08:17:40;13.80;87.50
63317;DHT22;49822;41.468;13.560;2024-03-06T08:20:10;13.90;87.30
63317;DHT22;49822;41.468;13.560;2024-03-06T08:22:39;13.90;87.50
63317;DHT22;49822;41.468;13.560;2024-03-06T08:25:10;14.00;87.90
63317;DHT22;49822;41.468;13.560;2024-03-06T08:27:41;14.20;87.70
63317;DHT22;49822;41.468;13.560;2024-03-06T08:30:08;14.50;87.50
63317;DHT22;49822;41.468;13.560;2024-03-06T08:32:36;14.70;86.90
63317;DHT22;49822;41.468;13.560;2024-03-06T08:35:10;14.30;85.60
63317;DHT22;49822;41.468;13.560;2024-03-06T08:37:38;14.30;85.90
63317;DHT22;49822;41.468;13.560;2024-03-06T08:40:10;14.50;86.40
63317;DHT22;49822;41.468;13.560;2024-03-06T08:42:41;14.80;86.30
63317;DHT22;49822;41.468;13.560;2024-03-06T08:45:08;14.90;86.60
63317;DHT22;49822;41.468;13.560;2024-03-06T08:47:34;14.90;86.20
63317;DHT22;49822;41.468;13.560;2024-03-06T08:50:02;15.00;85.60
63317;DHT22;49822;41.468;13.560;2024-03-06T08:52:29;15.00;85.60
63317;DHT22;49822;41.468;13.560;2024-03-06T08:54:58;15.00;84.70
63317;DHT22;49822;41.468;13.560;2024-03-06T08:57:24;14.90;85.30
63317;DHT22;49822;41.468;13.560;2024-03-06T08:59:54;15.00;85.40
63317;DHT22;49822;41.468;13.560;2024-03-06T09:02:20;15.10;85.20
63317;DHT22;49822;41.468;13.560;2024-03-06T09:04:47;15.20;85.50
63317;DHT22;49822;41.468;13.560;2024-03-06T09:07:13;15.10;85.10
63317;DHT22;49822;41.468;13.560;2024-03-06T09:09:40;14.70;83.80
63317;DHT22;49822;41.468;13.560;2024-03-06T09:12:08;14.80;85.00
63317;DHT22;49822;41.468;13.560;2024-03-06T09:14:39;14.50;85.40
63317;DHT22;49822;41.468;13.560;2024-03-06T09:17:07;14.60;85.60
63317;DHT22;49822;41.468;13.560;2024-03-06T09:19:36;15.00;86.00
63317;DHT22;49822;41.468;13.560;2024-03-06T09:22:02;15.30;86.70
63317;DHT22;49822;41.468;13.560;2024-03-06T09:24:28;15.60;85.80
63317;DHT22;49822;41.468;13.560;2024-03-06T09:26:54;16.10;84.70
63317;DHT22;49822;41.468;13.560;2024-03-06T09:29:21;16.10;84.20
63317;DHT22;49822;41.468;13.560;2024-03-06T09:31:48;16.10;84.20
63317;DHT22;49822;41.468;13.560;2024-03-06T09:34:15;16.00;84.60
63317;DHT22;49822;41.468;13.560;2024-03-06T09:36:45;16.20;84.50
63317;DHT22;49822;41.468;13.560;2024-03-06T09:39:15;16.40;84.80
63317;DHT22;49822;41.468;13.560;2024-03-06T09:41:49;16.30;84.20
63317;DHT22;49822;41.468;13.560;2024-03-06T09:44:17;16.30;84.10
63317;DHT22;49822;41.468;13.560;2024-03-06T09:46:45;16.30;83.00
63317;DHT22;49822;41.468;13.560;2024-03-06T09:49:12;16.20;82.80
63317;DHT22;49822;41.468;13.560;2024-03-06T09:51:46;16.10;83.20
63317;DHT22;49822;41.468;13.560;2024-03-06T09:54:16;15.90;83.80
63317;DHT22;49822;41.468;13.560;2024-03-06T09:56:43;16.00;84.10
63317;DHT22;49822;41.468;13.560;2024-03-06T09:59:12;16.00;84.10
63317;DHT22;49822;41.468;13.560;2024-03-06T10:01:48;16.10;84.10
63317;DHT22;49822;41.468;13.560;2024-03-06T10:04:22;16.10;83.90
63317;DHT22;49822;41.468;13.560;2024-03-06T10:06:56;16.10;83.50
63317;DHT22;49822;41.468;13.560;2024-03-06T10:09:23;16.10;82.80
63317;DHT22;49822;41.468;13.560;2024-03-06T10:11:49;16.00;82.50
63317;DHT22;49822;41.468;13.560;2024-03-06T10:14:18;15.80;79.70
63317;DHT22;49822;41.468;13.560;2024-03-06T10:17:11;15.50;82.70
63317;DHT22;49822;41.468;13.560;2024-03-06T10:19:44;15.80;82.40
63317;DHT22;49822;41.468;13.560;2024-03-06T10:22:19;16.10;77.70
63317;DHT22;49822;41.468;13.560;2024-03-06T10:24:46;16.40;75.00
63317;DHT22;49822;41.468;13.560;2024-03-06T10:27:16;16.20;73.00
63317;DHT22;49822;41.468;13.560;2024-03-06T10:29:44;16.00;73.00
63317;DHT22;49822;41.468;13.560;2024-03-06T10:32:10;16.00;74.70
63317;DHT22;49822;41.468;13.560;2024-03-06T10:34:46;16.00;74.70
63317;DHT22;49822;41.468;13.560;2024-03-06T10:37:13;15.80;73.70
63317;DHT22;49822;41.468;13.560;2024-03-06T10:39:42;15.50;72.60
63317;DHT22;49822;41.468;13.560;2024-03-06T10:42:13;15.50;71.80
63317;DHT22;49822;41.468;13.560;2024-03-06T10:44:59;15.60;72.60
63317;DHT22;49822;41.468;13.560;2024-03-06T10:47:28;15.90;72.30
63317;DHT22;49822;41.468;13.560;2024-03-06T10:49:55;16.10;69.70
63317;DHT22;49822;41.468;13.560;2024-03-06T10:52:25;15.70;70.80
63317;DHT22;49822;41.468;13.560;2024-03-06T10:54:54;15.60;70.60
63317;DHT22;49822;41.468;13.560;2024-03-06T10:57:25;15.40;70.60
63317;DHT22;49822;41.468;13.560;2024-03-06T10:59:52;15.10;72.90
63317;DHT22;49822;41.468;13.560;2024-03-06T11:02:19;14.70;74.40
63317;DHT22;49822;41.468;13.560;2024-03-06T11:04:47;14.60;76.00
63317;DHT22;49822;41.468;13.560;2024-03-06T11:07:13;15.00;77.00
63317;DHT22;49822;41.468;13.560;2024-03-06T11:09:40;15.50;76.20
63317;DHT22;49822;41.468;13.560;2024-03-06T11:12:06;15.70;75.30
63317;DHT22;49822;41.468;13.560;2024-03-06T11:14:36;16.10;74.80
63317;DHT22;49822;41.468;13.560;2024-03-06T11:17:10;16.20;73.80
63317;DHT22;49822;41.468;13.560;2024-03-06T11:28:23;16.70;69.80
63317;DHT22;49822;41.468;13.560;2024-03-06T11:31:04;16.50;69.40
63317;DHT22;49822;41.468;13.560;2024-03-06T11:33:34;16.00;69.10
63317;DHT22;49822;41.468;13.560;2024-03-06T11:36:22;16.50;68.70
63317;DHT22;49822;41.468;13.560;2024-03-06T11:41:26;16.10;68.70
63317;DHT22;49822;41.468;13.560;2024-03-06T11:43:54;16.20;67.80
63317;DHT22;49822;41.468;13.560;2024-03-06T11:49:21;17.10;67.70
63317;DHT22;49822;41.468;13.560;2024-03-06T11:51:51;16.90;67.80
63317;DHT22;49822;41.468;13.560;2024-03-06T11:54:17;16.90;66.90
63317;DHT22;49822;41.468;13.560;2024-03-06T11:56:52;17.00;66.80
63317;DHT22;49822;41.468;13.560;2024-03-06T11:59:28;16.20;67.90
63317;DHT22;49822;41.468;13.560;2024-03-06T12:01:56;15.90;67.70
63317;DHT22;49822;41.468;13.560;2024-03-06T12:04:25;16.00;67.80
63317;DHT22;49822;41.468;13.560;2024-03-06T12:06:58;16.20;66.60
63317;DHT22;49822;41.468;13.560;2024-03-06T12:09:38;15.80;65.80
63317;DHT22;49822;41.468;13.560;2024-03-06T12:12:07;15.80;66.90
63317;DHT22;49822;41.468;13.560;2024-03-06T12:14:37;15.70;68.10
63317;DHT22;49822;41.468;13.560;2024-03-06T12:17:05;15.70;69.00
63317;DHT22;49822;41.468;13.560;2024-03-06T12:20:00;15.70;70.10
63317;DHT22;49822;41.468;13.560;2024-03-06T12:22:32;15.30;69.80
63317;DHT22;49822;41.468;13.560;2024-03-06T12:25:00;15.70;71.20
63317;DHT22;49822;41.468;13.560;2024-03-06T12:27:30;15.90;71.30
63317;DHT22;49822;41.468;13.560;2024-03-06T12:29:57;15.80;67.20
63317;DHT22;49822;41.468;13.560;2024-03-06T12:32:26;15.90;66.80
63317;DHT22;49822;41.468;13.560;2024-03-06T12:34:59;16.40;67.80
63317;DHT22;49822;41.468;13.560;2024-03-06T12:37:30;16.20;66.20
63317;DHT22;49822;41.468;13.560;2024-03-06T12:39:57;15.60;65.60
63317;DHT22;49822;41.468;13.560;2024-03-06T12:42:24;15.20;67.00
63317;DHT22;49822;41.468;13.560;2024-03-06T12:44:50;15.50;67.40
63317;DHT22;49822;41.468;13.560;2024-03-06T12:47:16;15.10;65.80
63317;DHT22;49822;41.468;13.560;2024-03-06T12:49:43;14.80;66.90
63317;DHT22;49822;41.468;13.560;2024-03-06T12:52:10;14.80;69.90
63317;DHT22;49822;41.468;13.560;2024-03-06T12:54:37;14.30;72.10
63317;DHT22;49822;41.468;13.560;2024-03-06T12:57:03;13.80;74.10
63317;DHT22;49822;41.468;13.560;2024-03-06T12:59:29;13.90;75.40
63317;DHT22;49822;41.468;13.560;2024-03-06T13:01:56;13.90;73.70
63317;DHT22;49822;41.468;13.560;2024-03-06T13:04:23;14.10;74.60
63317;DHT22;49822;41.468;13.560;2024-03-06T13:06:50;14.20;74.10
63317;DHT22;49822;41.468;13.560;2024-03-06T13:09:17;14.20;76.00
63317;DHT22;49822;41.468;13.560;2024-03-06T13:11:43;14.40;78.10
63317;DHT22;49822;41.468;13.560;2024-03-06T13:14:09;14.10;76.00
63317;DHT22;49822;41.468;13.560;2024-03-06T13:16:37;13.90;76.60
63317;DHT22;49822;41.468;13.560;2024-03-06T13:19:03;13.00;76.40
63317;DHT22;49822;41.468;13.560;2024-03-06T13:21:30;12.70;77.40
63317;DHT22;49822;41.468;13.560;2024-03-06T13:23:58;12.60;77.10
63317;DHT22;49822;41.468;13.560;2024-03-06T13:26:25;12.70;77.20
63317;DHT22;49822;41.468;13.560;2024-03-06T13:28:51;12.60;76.70
63317;DHT22;49822;41.468;13.560;2024-03-06T13:31:17;12.70;76.90
63317;DHT22;49822;41.468;13.560;2024-03-06T13:33:44;12.40;77.50
63317;DHT22;49822;41.468;13.560;2024-03-06T13:36:10;12.30;77.80
63317;DHT22;49822;41.468;13.560;2024-03-06T13:38:37;11.80;79.50
63317;DHT22;49822;41.468;13.560;2024-03-06T13:41:03;11.40;79.60
63317;DHT22;49822;41.468;13.560;2024-03-06T13:43:29;11.50;79.70
63317;DHT22;49822;41.468;13.560;2024-03-06T13:45:57;11.50;79.80
63317;DHT22;49822;41.468;13.560;2024-03-06T13:48:24;11.70;79.70
63317;DHT22;49822;41.468;13.560;2024-03-06T13:50:50;12.00;79.30
63317;DHT22;49822;41.468;13.560;2024-03-06T13:53:17;12.10;78.60
63317;DHT22;49822;41.468;13.560;2024-03-06T13:55:44;12.20;79.10
63317;DHT22;49822;41.468;13.560;2024-03-06T13:58:10;11.90;78.50
63317;DHT22;49822;41.468;13.560;2024-03-06T14:00:37;12.00;77.50
63317;DHT22;49822;41.468;13.560;2024-03-06T14:03:06;12.00;79.10
63317;DHT22;49822;41.468;13.560;2024-03-06T14:05:32;12.40;77.70
63317;DHT22;49822;41.468;13.560;2024-03-06T14:07:58;12.40;78.30
63317;DHT22;49822;41.468;13.560;2024-03-06T14:10:24;12.50;77.70
63317;DHT22;49822;41.468;13.560;2024-03-06T14:12:53;12.50;77.90
63317;DHT22;49822;41.468;13.560;2024-03-06T14:15:20;12.40;77.90
63317;DHT22;49822;41.468;13.560;2024-03-06T14:17:49;12.50;78.40
63317;DHT22;49822;41.468;13.560;2024-03-06T14:20:15;12.50;78.10
63317;DHT22;49822;41.468;13.560;2024-03-06T14:22:42;12.60;77.50
63317;DHT22;49822;41.468;13.560;2024-03-06T14:25:08;12.50;76.60
63317;DHT22;49822;41.468;13.560;2024-03-06T14:27:34;12.80;76.00
63317;DHT22;49822;41.468;13.560;2024-03-06T14:30:07;13.50;75.10
63317;DHT22;49822;41.468;13.560;2024-03-06T14:32:33;13.80;73.50
63317;DHT22;49822;41.468;13.560;2024-03-06T14:35:00;14.20;71.30
63317;DHT22;49822;41.468;13.560;2024-03-06T14:37:26;14.60;71.00
63317;DHT22;49822;41.468;13.560;2024-03-06T14:39:52;15.00;71.40
63317;DHT22;49822;41.468;13.560;2024-03-06T14:42:19;15.40;70.50
63317;DHT22;49822;41.468;13.560;2024-03-06T14:44:46;15.50;68.20
63317;DHT22;49822;41.468;13.560;2024-03-06T14:47:12;15.90;69.80
63317;DHT22;49822;41.468;13.560;2024-03-06T14:49:47;16.30;68.60
63317;DHT22;49822;41.468;13.560;2024-03-06T14:52:13;16.60;68.00
63317;DHT22;49822;41.468;13.560;2024-03-06T14:54:40;16.70;66.50
63317;DHT22;49822;41.468;13.560;2024-03-06T14:57:09;16.70;65.80
63317;DHT22;49822;41.468;13.560;2024-03-06T14:59:35;17.30;66.10
63317;DHT22;49822;41.468;13.560;2024-03-06T15:02:01;18.20;66.50
63317;DHT22;49822;41.468;13.560;2024-03-06T15:04:30;17.70;64.90
63317;DHT22;49822;41.468;13.560;2024-03-06T15:06:56;18.80;64.30
63317;DHT22;49822;41.468;13.560;2024-03-06T15:09:23;19.10;62.00
63317;DHT22;49822;41.468;13.560;2024-03-06T15:11:52;19.20;62.00
63317;DHT22;49822;41.468;13.560;2024-03-06T15:14:19;19.80;60.60
63317;DHT22;49822;41.468;13.560;2024-03-06T15:16:46;19.30;60.70
63317;DHT22;49822;41.468;13.560;2024-03-06T15:19:12;17.40;63.30
63317;DHT22;49822;41.468;13.560;2024-03-06T15:21:38;16.30;66.10
63317;DHT22;49822;41.468;13.560;2024-03-06T15:24:04;17.00;65.60
63317;DHT22;49822;41.468;13.560;2024-03-06T15:26:31;17.90;63.30
63317;DHT22;49822;41.468;13.560;2024-03-06T15:28:57;19.20;62.40
63317;DHT22;49822;41.468;13.560;2024-03-06T15:31:24;20.50;60.30
63317;DHT22;49822;41.468;13.560;2024-03-06T15:33:51;19.80;60.40
63317;DHT22;49822;41.468;13.560;2024-03-06T15:36:18;20.50;60.40
63317;DHT22;49822;41.468;13.560;2024-03-06T15:38:44;21.50;57.30
63317;DHT22;49822;41.468;13.560;2024-03-06T15:41:10;21.90;55.60
63317;DHT22;49822;41.468;13.560;2024-03-06T15:43:37;19.90;57.80